Time;durP1;ratioP1;P1;durP2;ratioP2;P2;SDS_P1;SDS_P2;PMS_P1;PMS_P2;Temp;Humidity;BMP_temperature;BMP_pressure;BME280_temperature;BME280_humidity;BME280_pressure;Samples;Min_cycle;Max_cycle;Signal;HPM_P1;HPM_P2
2023/01/21 00:00:52;;;;;;;3.20;2.90;;;;;;;;;;5046231;28;20628;-76
2023/01/21 00:03:20;;;;;;;4.17;3.07;;;;;;;;;;5050337;28;20222;-77
2023/01/21 00:05:47;;;;;;;3.67;1.70;;;;;;;;;;5046475;28;20238;-77
2023/01/21 00:08:15;;;;;;;5.47;2.53;;;;;;;;;;5043836;28;20724;-77
2023/01/21 00:10:42;;;;;;;1.20;1.00;;;;;;;;;;5048020;28;20211;-77
2023/01/21 00:13:09;;;;;;;3.70;2.60;;;;;;;;;;5049891;28;20219;-76
2023/01/21 00:15:36;;;;;;;2.97;1.97;;;;;;;;;;5045767;28;20219;-77
2023/01/21 00:18:03;;;;;;;3.40;3.03;;;;;;;;;;5045382;28;20691;-77
2023/01/21 00:20:30;;;;;;;4.50;2.67;;;;;;;;;;5046872;28;20208;-76
2023/01/21 00:22:57;;;;;;;2.50;1.97;;;;;;;;;;5047037;28;20254;-76
2023/01/21 00:25:26;;;;;;;3.10;2.60;;;;;;;;;;5048918;28;20208;-77
2023/01/21 00:27:53;;;;;;;1.90;1.83;;;;;;;;;;5044606;28;20224;-78
2023/01/21 00:30:20;;;;;;;6.13;2.43;;;;;;;;;;5044873;28;20677;-77
2023/01/21 00:32:47;;;;;;;5.97;3.33;;;;;;;;;;5041818;28;20215;-76
2023/01/21 00:35:14;;;;;;;4.00;2.27;;;;;;;;;;5042483;28;20208;-76
2023/01/21 00:37:41;;;;;;;2.50;2.20;;;;;;;;;;5046524;28;20662;-76
2023/01/21 00:40:09;;;;;;;2.07;1.90;;;;;;;;;;5047888;28;20212;-77
2023/01/21 00:42:37;;;;;;;3.27;3.07;;;;;;;;;;5044463;28;20211;-76
2023/01/21 00:45:05;;;;;;;1.53;1.43;;;;;;;;;;5048196;28;20212;-76
2023/01/21 00:47:32;;;;;;;2.90;2.30;;;;;;;;;;5046931;28;20253;-76
2023/01/21 00:49:59;;;;;;;2.97;2.10;;;;;;;;;;5048211;28;20550;-75
2023/01/21 00:52:26;;;;;;;2.47;1.93;;;;;;;;;;5048036;28;20200;-76
2023/01/21 00:54:53;;;;;;;3.30;2.40;;;;;;;;;;5041046;28;20224;-76
2023/01/21 00:57:20;;;;;;;1.40;1.17;;;;;;;;;;5047641;28;20240;-76
2023/01/21 00:59:49;;;;;;;1.40;1.37;;;;;;;;;;5046658;28;20211;-76
2023/01/21 01:02:16;;;;;;;3.60;2.30;;;;;;;;;;5046022;28;20266;-76
2023/01/21 01:04:43;;;;;;;3.07;2.63;;;;;;;;;;5045110;28;20248;-76
2023/01/21 01:07:11;;;;;;;7.10;2.97;;;;;;;;;;5045645;28;20207;-75
2023/01/21 01:09:37;;;;;;;2.37;2.03;;;;;;;;;;5046310;28;20234;-75
2023/01/21 01:12:05;;;;;;;3.33;2.40;;;;;;;;;;5046211;28;20644;-75
2023/01/21 01:14:41;;;;;;;1.37;1.27;;;;;;;;;;5048511;28;20660;-75
2023/01/21 01:17:09;;;;;;;1.27;1.17;;;;;;;;;;5047765;28;20207;-75
2023/01/21 01:19:36;;;;;;;4.20;3.43;;;;;;;;;;5043757;28;20229;-75
2023/01/21 01:22:03;;;;;;;2.73;2.53;;;;;;;;;;5047200;28;20209;-76
2023/01/21 01:24:31;;;;;;;4.90;2.50;;;;;;;;;;5048001;28;20254;-75
2023/01/21 01:26:58;;;;;;;5.03;4.07;;;;;;;;;;5045405;28;20204;-74
2023/01/21 01:29:25;;;;;;;3.43;2.10;;;;;;;;;;5046764;28;20227;-76
2023/01/21 01:31:52;;;;;;;12.03;4.20;;;;;;;;;;5043140;28;20261;-75
2023/01/21 01:34:21;;;;;;;4.63;3.97;;;;;;;;;;5047830;28;20295;-75
2023/01/21 01:36:49;;;;;;;5.07;3.93;;;;;;;;;;5047077;28;20202;-75
2023/01/21 01:39:16;;;;;;;6.10;4.23;;;;;;;;;;5043752;28;20200;-76
2023/01/21 01:41:43;;;;;;;6.63;4.03;;;;;;;;;;5045105;28;20638;-75
2023/01/21 01:44:25;;;;;;;9.70;5.13;;;;;;;;;;5046891;28;20231;-74
2023/01/21 01:46:52;;;;;;;9.53;2.73;;;;;;;;;;5047112;28;20257;-76
2023/01/21 01:49:22;;;;;;;4.37;2.57;;;;;;;;;;5045907;28;20220;-75
2023/01/21 01:51:51;;;;;;;5.87;2.73;;;;;;;;;;5047384;28;20258;-75
2023/01/21 01:54:20;;;;;;;4.43;4.00;;;;;;;;;;5043217;28;20212;-75
2023/01/21 01:56:49;;;;;;;4.30;2.23;;;;;;;;;;5046901;28;20239;-76
2023/01/21 01:59:16;;;;;;;3.23;3.03;;;;;;;;;;5044073;28;20199;-75
2023/01/21 02:01:43;;;;;;;6.20;3.43;;;;;;;;;;5043002;28;20208;-75
2023/01/21 02:04:12;;;;;;;4.07;2.53;;;;;;;;;;5047638;28;20937;-76
2023/01/21 02:06:41;;;;;;;7.23;4.40;;;;;;;;;;5047261;28;20629;-75
2023/01/21 02:09:08;;;;;;;5.30;2.07;;;;;;;;;;5045671;28;20224;-75
2023/01/21 02:11:37;;;;;;;3.20;3.00;;;;;;;;;;5043995;28;20976;-75
2023/01/21 02:14:04;;;;;;;4.07;3.23;;;;;;;;;;5047435;28;20214;-75
2023/01/21 02:16:36;;;;;;;2.03;1.90;;;;;;;;;;5047382;28;20226;-75
2023/01/21 02:19:11;;;;;;;5.80;3.53;;;;;;;;;;5047152;28;20267;-75
2023/01/21 02:21:59;;;;;;;5.10;2.77;;;;;;;;;;5046035;28;20218;-75
2023/01/21 02:24:40;;;;;;;1.47;1.40;;;;;;;;;;5042066;28;20732;-76
2023/01/21 02:27:22;;;;;;;5.43;3.07;;;;;;;;;;5046237;28;20206;-75
2023/01/21 02:30:11;;;;;;;0.77;0.77;;;;;;;;;;5045035;28;20227;-75
2023/01/21 02:32:45;;;;;;;3.03;2.43;;;;;;;;;;5010245;28;20293;-75
2023/01/21 02:35:17;;;;;;;3.93;3.03;;;;;;;;;;5046053;28;20215;-75
2023/01/21 02:37:46;;;;;;;3.20;2.83;;;;;;;;;;5044521;28;20284;-75
2023/01/21 02:40:16;;;;;;;3.33;2.83;;;;;;;;;;5042452;28;20716;-75
2023/01/21 02:42:46;;;;;;;8.07;3.63;;;;;;;;;;5044725;28;20694;-75
2023/01/21 02:45:20;;;;;;;2.30;1.80;;;;;;;;;;5051128;28;20301;-75
2023/01/21 02:47:50;;;;;;;2.03;1.77;;;;;;;;;;5050200;28;20328;-76
2023/01/21 02:50:21;;;;;;;6.20;3.27;;;;;;;;;;5045115;28;20232;-76
2023/01/21 02:52:54;;;;;;;2.83;2.47;;;;;;;;;;5049770;28;20299;-75
2023/01/21 02:55:24;;;;;;;2.40;2.20;;;;;;;;;;5045138;28;20204;-75
2023/01/21 02:57:59;;;;;;;2.30;2.10;;;;;;;;;;5047222;28;20297;-76
2023/01/21 03:00:28;;;;;;;0.40;0.40;;;;;;;;;;5051154;28;20269;-75
2023/01/21 03:03:13;;;;;;;5.63;2.83;;;;;;;;;;5050642;28;20250;-75
2023/01/21 03:05:49;;;;;;;2.47;1.47;;;;;;;;;;5043809;28;20212;-76
2023/01/21 03:08:19;;;;;;;1.47;1.37;;;;;;;;;;5050788;28;20261;-75
2023/01/21 03:10:48;;;;;;;7.73;3.70;;;;;;;;;;5051135;28;20671;-74
2023/01/21 03:16:55;;;;;;;1.90;1.77;;;;;;;;;;5050380;28;20215;-76
2023/01/21 03:18:50;;;;;;;4.93;3.53;;;;;;;;;;5017261;28;20215;-75
2023/01/21 03:21:20;;;;;;;1.20;1.20;;;;;;;;;;5051015;28;20199;-75
2023/01/21 03:23:51;;;;;;;3.73;3.07;;;;;;;;;;5050536;28;20632;-76
2023/01/21 03:26:19;;;;;;;3.23;2.97;;;;;;;;;;5046629;28;20298;-76
2023/01/21 03:28:49;;;;;;;5.37;3.63;;;;;;;;;;5048813;28;20281;-75
2023/01/21 03:31:21;;;;;;;2.93;2.23;;;;;;;;;;5049868;28;20280;-76
2023/01/21 03:33:50;;;;;;;4.40;2.50;;;;;;;;;;5049690;28;20214;-76
2023/01/21 03:36:21;;;;;;;1.77;1.23;;;;;;;;;;5050312;28;20768;-76
2023/01/21 03:38:50;;;;;;;2.73;2.17;;;;;;;;;;5050538;28;20240;-76
2023/01/21 03:41:18;;;;;;;2.00;1.70;;;;;;;;;;5048498;28;20207;-78
2023/01/21 03:43:45;;;;;;;2.77;1.13;;;;;;;;;;5047284;28;20261;-76
2023/01/21 03:46:16;;;;;;;2.20;1.97;;;;;;;;;;5050137;28;20220;-77
2023/01/21 03:48:44;;;;;;;3.63;1.97;;;;;;;;;;5049972;28;20226;-77
2023/01/21 03:51:14;;;;;;;0.33;0.33;;;;;;;;;;5050381;28;20271;-77
2023/01/21 03:53:43;;;;;;;2.07;1.97;;;;;;;;;;5049098;28;20211;-77
2023/01/21 03:56:10;;;;;;;6.13;3.00;;;;;;;;;;5049352;28;20276;-77
2023/01/21 03:58:37;;;;;;;3.13;1.80;;;;;;;;;;5050015;28;20203;-77
2023/01/21 04:01:04;;;;;;;11.43;3.33;;;;;;;;;;5049213;28;20210;-77
2023/01/21 04:03:31;;;;;;;1.57;1.47;;;;;;;;;;5046295;28;20206;-77
2023/01/21 04:05:58;;;;;;;5.87;3.23;;;;;;;;;;5048243;28;20218;-77
2023/01/21 04:08:25;;;;;;;1.57;1.47;;;;;;;;;;5049066;28;20211;-77
2023/01/21 04:10:53;;;;;;;5.43;2.63;;;;;;;;;;5050586;28;20210;-77
2023/01/21 04:13:20;;;;;;;2.97;1.97;;;;;;;;;;5049496;28;20207;-78
2023/01/21 04:15:47;;;;;;;3.53;3.03;;;;;;;;;;5048416;28;20212;-78
2023/01/21 04:18:14;;;;;;;1.13;1.13;;;;;;;;;;5050419;28;20317;-78
2023/01/21 04:20:41;;;;;;;2.13;1.23;;;;;;;;;;5049764;28;20205;-78
2023/01/21 04:23:08;;;;;;;2.87;2.30;;;;;;;;;;5048603;28;20214;-78
2023/01/21 04:25:35;;;;;;;2.47;1.33;;;;;;;;;;5047482;28;20218;-78
2023/01/21 04:28:03;;;;;;;1.00;0.90;;;;;;;;;;5047065;28;20209;-78
2023/01/21 04:30:30;;;;;;;2.87;2.57;;;;;;;;;;5042969;28;20275;-77
2023/01/21 04:32:57;;;;;;;2.87;2.23;;;;;;;;;;5049196;28;20262;-77
2023/01/21 04:35:24;;;;;;;1.60;1.50;;;;;;;;;;5046752;28;20268;-77
2023/01/21 04:37:51;;;;;;;5.80;2.43;;;;;;;;;;5046764;28;20285;-76
2023/01/21 04:40:19;;;;;;;4.80;3.17;;;;;;;;;;5044782;28;20899;-76
2023/01/21 04:42:46;;;;;;;3.43;1.60;;;;;;;;;;5045815;28;20267;-77
2023/01/21 04:45:14;;;;;;;8.20;1.60;;;;;;;;;;5047246;28;20267;-77
2023/01/21 04:47:42;;;;;;;3.83;3.07;;;;;;;;;;5046410;28;20270;-76
2023/01/21 04:50:09;;;;;;;0.53;0.53;;;;;;;;;;5048383;28;20319;-76
2023/01/21 04:52:36;;;;;;;1.70;1.60;;;;;;;;;;5047422;28;20216;-76
2023/01/21 04:55:04;;;;;;;6.00;2.70;;;;;;;;;;5046279;28;20213;-76
2023/01/21 04:57:31;;;;;;;9.13;2.47;;;;;;;;;;5046140;28;20240;-76
2023/01/21 04:59:58;;;;;;;0.87;0.60;;;;;;;;;;5048840;28;20220;-77
2023/01/21 05:02:26;;;;;;;2.90;2.37;;;;;;;;;;5047797;28;20551;-76
2023/01/21 05:04:53;;;;;;;4.93;2.87;;;;;;;;;;5047021;28;20223;-76
2023/01/21 05:07:20;;;;;;;2.53;2.40;;;;;;;;;;5047123;28;20298;-76
2023/01/21 05:09:47;;;;;;;1.60;1.50;;;;;;;;;;5048550;28;20291;-76
2023/01/21 05:12:14;;;;;;;2.57;1.70;;;;;;;;;;5047041;28;20656;-76
2023/01/21 05:14:41;;;;;;;1.43;1.37;;;;;;;;;;5047264;28;20220;-75
2023/01/21 05:17:08;;;;;;;3.80;2.17;;;;;;;;;;5046425;28;20582;-76
2023/01/21 05:19:36;;;;;;;1.43;1.40;;;;;;;;;;5048466;28;20270;-76
2023/01/21 05:22:03;;;;;;;5.80;2.67;;;;;;;;;;5048001;28;20209;-76
2023/01/21 05:24:31;;;;;;;3.80;1.50;;;;;;;;;;5045275;28;20656;-76
2023/01/21 05:26:58;;;;;;;5.33;3.10;;;;;;;;;;5046758;28;20213;-76
2023/01/21 05:29:25;;;;;;;1.73;1.63;;;;;;;;;;5047581;28;20236;-76
2023/01/21 05:31:52;;;;;;;2.87;2.07;;;;;;;;;;5053900;28;20198;-76
2023/01/21 05:34:19;;;;;;;3.10;2.57;;;;;;;;;;5054512;28;20208;-75
2023/01/21 05:36:47;;;;;;;3.00;2.70;;;;;;;;;;5053470;28;20261;-75
2023/01/21 05:39:14;;;;;;;3.40;2.30;;;;;;;;;;5053126;28;20209;-75
2023/01/21 05:41:41;;;;;;;2.67;2.37;;;;;;;;;;5054627;28;20208;-76
2023/01/21 05:44:08;;;;;;;5.57;2.70;;;;;;;;;;5052772;28;20206;-75
2023/01/21 05:46:35;;;;;;;3.83;2.40;;;;;;;;;;5053699;28;20209;-76
2023/01/21 05:49:02;;;;;;;1.53;1.47;;;;;;;;;;5054407;28;20213;-75
2023/01/21 05:51:29;;;;;;;3.17;2.67;;;;;;;;;;5053703;28;20197;-75
2023/01/21 05:53:58;;;;;;;3.63;2.13;;;;;;;;;;5053627;28;20914;-75
2023/01/21 05:56:25;;;;;;;3.50;1.77;;;;;;;;;;5051756;28;20294;-75
2023/01/21 05:58:52;;;;;;;2.93;2.07;;;;;;;;;;5051996;28;20267;-75
2023/01/21 06:01:19;;;;;;;5.17;2.20;;;;;;;;;;5053346;28;20204;-75
2023/01/21 06:03:46;;;;;;;2.87;2.57;;;;;;;;;;5049409;28;20711;-76
2023/01/21 06:06:13;;;;;;;2.70;1.83;;;;;;;;;;5043743;28;20220;-76
2023/01/21 06:08:40;;;;;;;5.27;2.07;;;;;;;;;;5046588;28;20216;-75
2023/01/21 06:11:08;;;;;;;2.53;2.30;;;;;;;;;;5047262;28;20290;-75
2023/01/21 06:13:35;;;;;;;1.90;1.63;;;;;;;;;;5047802;28;20593;-75
2023/01/21 06:16:02;;;;;;;5.97;1.90;;;;;;;;;;5046477;28;20224;-75
2023/01/21 06:18:29;;;;;;;6.03;3.07;;;;;;;;;;5047499;28;20220;-75
2023/01/21 06:20:59;;;;;;;2.47;2.03;;;;;;;;;;5046733;28;20211;-75
2023/01/21 06:23:26;;;;;;;1.87;1.77;;;;;;;;;;5046995;28;20254;-75
2023/01/21 06:25:53;;;;;;;4.70;3.17;;;;;;;;;;5046083;28;20670;-75
2023/01/21 06:28:21;;;;;;;0.67;0.67;;;;;;;;;;5046430;28;20221;-75
2023/01/21 06:30:48;;;;;;;4.67;2.87;;;;;;;;;;5046366;28;20320;-74
2023/01/21 06:33:15;;;;;;;4.93;3.43;;;;;;;;;;5046399;28;20208;-75
2023/01/21 06:35:42;;;;;;;3.07;2.37;;;;;;;;;;5046241;28;20617;-75
2023/01/21 06:38:09;;;;;;;4.90;2.77;;;;;;;;;;5047192;28;20230;-75
2023/01/21 06:40:36;;;;;;;3.77;3.30;;;;;;;;;;5046400;28;20295;-75
2023/01/21 06:43:03;;;;;;;6.27;2.90;;;;;;;;;;5046959;28;20616;-75
2023/01/21 06:45:31;;;;;;;3.97;2.40;;;;;;;;;;5046583;28;20259;-75
2023/01/21 06:47:58;;;;;;;5.70;3.03;;;;;;;;;;5046526;28;20263;-75
2023/01/21 06:50:25;;;;;;;2.77;2.50;;;;;;;;;;5045615;28;20230;-75
2023/01/21 06:52:52;;;;;;;7.60;3.23;;;;;;;;;;5047254;28;20260;-75
2023/01/21 06:55:20;;;;;;;4.43;2.60;;;;;;;;;;5045560;28;20212;-74
2023/01/21 06:57:47;;;;;;;5.90;3.03;;;;;;;;;;5046546;28;20240;-75
2023/01/21 07:00:14;;;;;;;2.53;2.33;;;;;;;;;;5047513;28;20205;-75
2023/01/21 07:02:42;;;;;;;3.03;2.80;;;;;;;;;;5045864;28;20267;-75
2023/01/21 07:05:10;;;;;;;9.07;5.10;;;;;;;;;;5046705;28;20222;-75
2023/01/21 07:07:37;;;;;;;5.67;3.03;;;;;;;;;;5046917;28;20231;-75
2023/01/21 07:10:04;;;;;;;1.97;1.87;;;;;;;;;;5047288;28;20237;-75
2023/01/21 07:12:31;;;;;;;4.23;2.27;;;;;;;;;;5045837;28;20214;-75
2023/01/21 07:14:58;;;;;;;1.80;1.70;;;;;;;;;;5046359;28;20296;-75
2023/01/21 07:17:25;;;;;;;4.83;2.83;;;;;;;;;;5046624;28;20201;-75
2023/01/21 07:20:11;;;;;;;3.80;3.00;;;;;;;;;;5047040;28;20259;-75
2023/01/21 07:22:39;;;;;;;2.57;2.37;;;;;;;;;;5033928;28;20742;-75
2023/01/21 07:25:07;;;;;;;6.23;2.73;;;;;;;;;;5045368;28;20258;-75
2023/01/21 07:27:34;;;;;;;1.80;1.33;;;;;;;;;;5047333;28;20664;-75
2023/01/21 07:30:07;;;;;;;4.43;2.17;;;;;;;;;;5049685;28;20267;-75
2023/01/21 07:32:34;;;;;;;4.47;2.27;;;;;;;;;;5050172;28;20208;-76
2023/01/21 07:35:01;;;;;;;3.70;2.63;;;;;;;;;;5048891;28;20201;-75
2023/01/21 07:37:28;;;;;;;5.40;2.23;;;;;;;;;;5050676;28;20573;-75
2023/01/21 07:39:57;;;;;;;2.40;1.80;;;;;;;;;;5049162;28;20338;-76
2023/01/21 07:42:24;;;;;;;2.93;1.63;;;;;;;;;;5050415;28;20713;-75
2023/01/21 07:44:51;;;;;;;5.70;2.60;;;;;;;;;;5048310;28;20218;-75
2023/01/21 07:47:18;;;;;;;4.83;2.77;;;;;;;;;;5049521;28;20620;-75
2023/01/21 07:49:45;;;;;;;3.43;3.13;;;;;;;;;;5049733;28;20215;-75
2023/01/21 07:52:12;;;;;;;3.73;3.17;;;;;;;;;;5050387;28;20254;-76
2023/01/21 07:54:39;;;;;;;5.10;3.20;;;;;;;;;;5049821;28;20263;-75
2023/01/21 07:57:07;;;;;;;3.37;2.43;;;;;;;;;;5046985;28;20317;-75
2023/01/21 07:59:34;;;;;;;2.97;1.93;;;;;;;;;;5048468;28;20217;-77
2023/01/21 08:02:01;;;;;;;3.90;3.03;;;;;;;;;;5050416;28;20206;-72
2023/01/21 08:04:28;;;;;;;7.63;2.47;;;;;;;;;;5048753;28;20205;-77
2023/01/21 08:06:55;;;;;;;4.47;2.73;;;;;;;;;;5048346;28;20213;-74
2023/01/21 08:09:23;;;;;;;5.03;3.30;;;;;;;;;;5042091;28;20570;-74
2023/01/21 08:11:50;;;;;;;5.07;2.80;;;;;;;;;;5050182;28;20232;-75
2023/01/21 08:14:21;;;;;;;3.33;3.07;;;;;;;;;;5051353;28;20201;-75
2023/01/21 08:16:48;;;;;;;5.80;3.10;;;;;;;;;;5052419;28;20222;-75
2023/01/21 08:19:16;;;;;;;3.47;3.13;;;;;;;;;;5047649;28;20221;-75
2023/01/21 08:21:44;;;;;;;7.07;3.50;;;;;;;;;;5050167;28;20201;-73
2023/01/21 08:24:11;;;;;;;3.43;2.50;;;;;;;;;;5047991;28;20214;-73
2023/01/21 08:26:38;;;;;;;3.63;3.30;;;;;;;;;;5047378;28;20271;-73
2023/01/21 08:29:05;;;;;;;6.57;3.23;;;;;;;;;;5047918;28;20272;-73
2023/01/21 08:31:34;;;;;;;6.73;4.10;;;;;;;;;;5049595;28;20239;-73
2023/01/21 08:34:02;;;;;;;5.87;4.40;;;;;;;;;;5052299;28;20202;-73
2023/01/21 08:36:37;;;;;;;6.80;3.40;;;;;;;;;;5050140;28;20619;-74
2023/01/21 08:39:05;;;;;;;7.63;3.90;;;;;;;;;;5048532;28;20291;-74
2023/01/21 08:41:33;;;;;;;6.80;4.13;;;;;;;;;;5051490;28;20209;-73
2023/01/21 08:44:01;;;;;;;9.60;5.77;;;;;;;;;;5051378;28;20222;-74
2023/01/21 08:46:32;;;;;;;7.83;4.90;;;;;;;;;;5048860;28;20577;-74
2023/01/21 08:49:01;;;;;;;9.70;4.97;;;;;;;;;;5048268;28;20210;-73
2023/01/21 08:51:29;;;;;;;5.50;3.40;;;;;;;;;;5050741;28;20250;-73
2023/01/21 08:53:57;;;;;;;7.67;4.27;;;;;;;;;;5051494;28;20917;-73
2023/01/21 08:56:24;;;;;;;7.67;4.87;;;;;;;;;;5050595;28;20768;-73
2023/01/21 08:58:56;;;;;;;10.23;5.23;;;;;;;;;;5052042;28;20271;-74
2023/01/21 09:01:23;;;;;;;4.80;3.53;;;;;;;;;;5042056;28;20204;-74
2023/01/21 09:03:54;;;;;;;3.37;3.10;;;;;;;;;;5047358;28;20220;-73
2023/01/21 09:06:22;;;;;;;8.93;3.27;;;;;;;;;;5047269;28;20211;-74
2023/01/21 09:08:49;;;;;;;10.27;4.60;;;;;;;;;;5044698;28;21118;-74
2023/01/21 09:11:16;;;;;;;4.33;3.33;;;;;;;;;;5045635;28;20584;-68
2023/01/21 09:13:44;;;;;;;5.73;4.07;;;;;;;;;;5048281;28;20207;-75
2023/01/21 09:16:12;;;;;;;2.80;2.40;;;;;;;;;;5047187;28;20382;-75
2023/01/21 09:18:39;;;;;;;3.93;3.17;;;;;;;;;;5044252;28;20204;-76
2023/01/21 09:21:06;;;;;;;2.90;2.57;;;;;;;;;;5047571;28;20215;-74
2023/01/21 09:23:35;;;;;;;4.83;3.37;;;;;;;;;;5048206;28;20207;-78
2023/01/21 09:26:03;;;;;;;5.83;2.37;;;;;;;;;;5046714;28;20273;-78
2023/01/21 09:28:30;;;;;;;1.80;1.30;;;;;;;;;;5047822;28;20211;-71
2023/01/21 09:30:57;;;;;;;2.20;2.03;;;;;;;;;;5044923;28;20231;-71
2023/01/21 09:33:25;;;;;;;3.63;2.47;;;;;;;;;;5047437;28;20227;-70
2023/01/21 09:35:55;;;;;;;1.70;1.60;;;;;;;;;;5046471;28;20210;-70
2023/01/21 09:38:22;;;;;;;0.60;0.60;;;;;;;;;;5048134;28;20625;-70
2023/01/21 09:40:50;;;;;;;0.93;0.93;;;;;;;;;;5047897;28;20268;-71
2023/01/21 09:43:20;;;;;;;0.90;0.43;;;;;;;;;;5047618;28;20212;-75
2023/01/21 09:45:48;;;;;;;1.43;1.33;;;;;;;;;;5045650;28;20678;-74
2023/01/21 09:48:17;;;;;;;1.40;1.30;;;;;;;;;;5048880;28;20574;-78
2023/01/21 09:50:45;;;;;;;0.30;0.30;;;;;;;;;;5048212;28;20224;-72
2023/01/21 09:53:16;;;;;;;0.20;0.20;;;;;;;;;;5037560;28;20260;-75
2023/01/21 09:55:46;;;;;;;0.70;0.70;;;;;;;;;;5040007;28;20308;-77
2023/01/21 09:58:20;;;;;;;3.77;2.53;;;;;;;;;;5044078;28;20214;-76
2023/01/21 10:00:49;;;;;;;4.50;2.80;;;;;;;;;;5046078;28;20207;-74
2023/01/21 10:03:25;;;;;;;2.80;1.53;;;;;;;;;;5044277;28;20268;-76
2023/01/21 10:06:08;;;;;;;2.43;0.97;;;;;;;;;;5047068;28;20578;-76
2023/01/21 10:08:41;;;;;;;1.40;1.30;;;;;;;;;;5044905;28;20219;-76
2023/01/21 10:11:17;;;;;;;1.70;1.10;;;;;;;;;;5047630;28;20270;-77
2023/01/21 10:13:54;;;;;;;1.40;1.40;;;;;;;;;;5045880;28;20242;-76
2023/01/21 10:16:23;;;;;;;3.00;1.70;;;;;;;;;;5045434;28;20272;-76
2023/01/21 10:18:51;;;;;;;0.30;0.30;;;;;;;;;;5045469;28;20293;-76
2023/01/21 10:21:27;;;;;;;1.20;1.20;;;;;;;;;;5047932;28;20653;-78
2023/01/21 10:23:58;;;;;;;1.00;0.80;;;;;;;;;;5045483;28;20269;-76
2023/01/21 10:26:27;;;;;;;7.73;1.23;;;;;;;;;;5045672;28;20219;-77
2023/01/21 10:28:56;;;;;;;1.47;1.33;;;;;;;;;;5047127;28;20218;-78
2023/01/21 10:31:24;;;;;;;1.97;1.73;;;;;;;;;;5047097;28;20673;-77
2023/01/21 10:33:51;;;;;;;1.07;1.07;;;;;;;;;;5043230;28;20673;-76
2023/01/21 10:36:29;;;;;;;1.33;1.30;;;;;;;;;;5046662;28;20215;-76
2023/01/21 10:38:59;;;;;;;0.17;0.17;;;;;;;;;;5046342;28;20253;-79
2023/01/21 10:41:35;;;;;;;2.73;1.83;;;;;;;;;;5047782;28;20207;-76
2023/01/21 10:44:06;;;;;;;1.07;0.97;;;;;;;;;;5044782;28;20590;-77
2023/01/21 10:46:38;;;;;;;0.83;0.83;;;;;;;;;;5047198;28;20208;-77
2023/01/21 10:49:11;;;;;;;1.30;1.20;;;;;;;;;;5043549;28;20682;-77
2023/01/21 10:51:41;;;;;;;1.47;1.47;;;;;;;;;;5046523;28;20615;-77
2023/01/21 10:54:13;;;;;;;2.93;1.20;;;;;;;;;;5046566;28;20203;-77
2023/01/21 10:56:44;;;;;;;0.17;0.17;;;;;;;;;;5043079;28;20288;-79
2023/01/21 10:59:14;;;;;;;2.17;1.80;;;;;;;;;;5047158;28;20276;-76
2023/01/21 11:01:43;;;;;;;0.73;0.73;;;;;;;;;;5042948;28;20620;-78
2023/01/21 11:04:13;;;;;;;0.47;0.47;;;;;;;;;;5041569;28;20596;-76
2023/01/21 11:06:41;;;;;;;2.33;2.17;;;;;;;;;;5050032;28;20208;-76
2023/01/21 11:09:11;;;;;;;1.23;0.87;;;;;;;;;;5049951;28;20265;-74
2023/01/21 11:11:39;;;;;;;4.53;0.97;;;;;;;;;;5050623;28;20283;-77
2023/01/21 11:14:06;;;;;;;2.27;1.10;;;;;;;;;;5049017;28;20589;-77
2023/01/21 11:16:42;;;;;;;2.13;1.90;;;;;;;;;;5050047;28;20214;-76
2023/01/21 11:19:12;;;;;;;1.70;0.70;;;;;;;;;;5035756;28;20810;-76
2023/01/21 11:21:39;;;;;;;2.10;1.83;;;;;;;;;;5040029;28;20208;-77
2023/01/21 11:24:20;;;;;;;2.10;1.43;;;;;;;;;;5047719;28;20235;-76
2023/01/21 11:26:50;;;;;;;1.37;1.27;;;;;;;;;;5050052;28;20207;-77
2023/01/21 11:29:18;;;;;;;1.13;0.50;;;;;;;;;;5048563;28;20317;-78
2023/01/21 11:31:48;;;;;;;4.97;1.60;;;;;;;;;;5048127;28;20231;-77
2023/01/21 11:34:16;;;;;;;1.00;1.00;;;;;;;;;;5044468;28;20315;-79
2023/01/21 11:36:56;;;;;;;3.93;2.87;;;;;;;;;;5046109;28;20207;-73
2023/01/21 11:39:24;;;;;;;0.80;0.50;;;;;;;;;;5046991;28;20235;-71
2023/01/21 11:41:52;;;;;;;1.17;0.60;;;;;;;;;;5049050;28;20207;-76
2023/01/21 11:44:19;;;;;;;1.23;0.70;;;;;;;;;;5040489;28;20215;-77
2023/01/21 11:46:48;;;;;;;2.50;2.30;;;;;;;;;;5049732;28;20629;-77
2023/01/21 11:49:19;;;;;;;0.50;0.50;;;;;;;;;;5047470;28;20247;-76
2023/01/21 11:51:47;;;;;;;1.83;1.73;;;;;;;;;;5046945;28;20656;-81
2023/01/21 11:54:15;;;;;;;1.57;1.47;;;;;;;;;;5049359;28;20208;-76
2023/01/21 11:56:43;;;;;;;2.23;1.10;;;;;;;;;;5049395;28;20243;-77
2023/01/21 11:59:20;;;;;;;1.03;0.80;;;;;;;;;;5049915;28;20215;-77
2023/01/21 12:01:53;;;;;;;1.27;1.20;;;;;;;;;;5047043;28;20673;-76
2023/01/21 12:04:20;;;;;;;2.93;1.27;;;;;;;;;;5044823;28;20209;-76
2023/01/21 12:06:50;;;;;;;3.03;1.67;;;;;;;;;;5049495;28;20226;-77
2023/01/21 12:09:19;;;;;;;0.97;0.97;;;;;;;;;;5048457;28;20669;-76
2023/01/21 12:11:48;;;;;;;0.77;0.77;;;;;;;;;;5047537;28;20867;-82
2023/01/21 12:14:22;;;;;;;1.23;1.20;;;;;;;;;;5044185;28;20358;-76
2023/01/21 12:16:54;;;;;;;0.60;0.60;;;;;;;;;;5041164;28;20627;-74
2023/01/21 12:19:28;;;;;;;0.90;0.90;;;;;;;;;;5048831;28;20775;-77
2023/01/21 12:22:04;;;;;;;1.10;1.10;;;;;;;;;;5048119;28;20606;-73
2023/01/21 12:24:37;;;;;;;1.20;1.10;;;;;;;;;;5049526;28;20229;-74
2023/01/21 12:27:10;;;;;;;3.90;2.07;;;;;;;;;;5049147;28;20207;-74
2023/01/21 12:29:45;;;;;;;1.80;0.50;;;;;;;;;;5047536;28;20268;-75
2023/01/21 12:32:14;;;;;;;1.83;0.97;;;;;;;;;;5048739;28;20225;-77
2023/01/21 12:34:45;;;;;;;3.73;1.73;;;;;;;;;;5046287;28;20256;-75
2023/01/21 12:37:15;;;;;;;4.20;1.30;;;;;;;;;;5048515;28;20214;-77
2023/01/21 12:39:42;;;;;;;0.93;0.93;;;;;;;;;;5043746;28;20282;-77
2023/01/21 12:42:11;;;;;;;0.47;0.47;;;;;;;;;;5047793;28;20787;-74
2023/01/21 12:44:40;;;;;;;1.80;1.47;;;;;;;;;;5046518;28;20223;-75
2023/01/21 12:47:12;;;;;;;0.87;0.87;;;;;;;;;;5038662;28;20215;-75
2023/01/21 12:49:52;;;;;;;1.23;1.13;;;;;;;;;;5035201;28;20260;-76
2023/01/21 12:52:21;;;;;;;0.60;0.60;;;;;;;;;;5043793;28;20231;-75
2023/01/21 12:54:51;;;;;;;1.83;1.73;;;;;;;;;;5047404;28;20359;-76
2023/01/21 12:57:21;;;;;;;2.17;1.37;;;;;;;;;;5044737;28;20238;-70
2023/01/21 12:59:50;;;;;;;1.00;0.87;;;;;;;;;;5046282;28;20261;-76
2023/01/21 13:02:19;;;;;;;1.43;1.33;;;;;;;;;;5043911;28;20976;-76
2023/01/21 13:04:49;;;;;;;0.13;0.13;;;;;;;;;;5046784;28;20218;-73
2023/01/21 13:07:24;;;;;;;0.20;0.20;;;;;;;;;;5046070;28;20263;-75
2023/01/21 13:09:55;;;;;;;1.17;1.07;;;;;;;;;;5046502;28;20209;-74
2023/01/21 13:12:22;;;;;;;0.70;0.40;;;;;;;;;;5047184;28;20230;-77
2023/01/21 13:14:54;;;;;;;1.20;0.30;;;;;;;;;;5047775;28;20680;-74
2023/01/21 13:17:22;;;;;;;1.83;0.43;;;;;;;;;;5048731;28;20214;-72
2023/01/21 13:19:50;;;;;;;0.73;0.73;;;;;;;;;;5048971;28;20218;-77
2023/01/21 13:22:24;;;;;;;0.70;0.70;;;;;;;;;;5047589;28;20237;-75
2023/01/21 13:25:00;;;;;;;2.53;1.87;;;;;;;;;;5048689;28;20649;-75
2023/01/21 13:27:31;;;;;;;4.80;1.80;;;;;;;;;;5031034;28;20649;-75
2023/01/21 13:30:03;;;;;;;0.50;0.50;;;;;;;;;;5047276;28;20200;-73
2023/01/21 13:32:33;;;;;;;0.87;0.23;;;;;;;;;;5040479;28;20231;-77
2023/01/21 13:35:08;;;;;;;0.90;0.90;;;;;;;;;;5048035;28;20541;-73
2023/01/21 13:37:40;;;;;;;0.77;0.77;;;;;;;;;;5027961;28;20747;-73
2023/01/21 13:40:19;;;;;;;1.07;0.90;;;;;;;;;;5047462;28;20212;-70
2023/01/21 13:42:51;;;;;;;0.77;0.70;;;;;;;;;;5045814;28;20261;-69
2023/01/21 13:45:23;;;;;;;1.40;1.30;;;;;;;;;;5044728;28;20261;-73
2023/01/21 13:48:03;;;;;;;0.60;0.60;;;;;;;;;;5037409;28;20235;-78
2023/01/21 13:50:37;;;;;;;0.67;0.53;;;;;;;;;;5046287;28;20209;-79
2023/01/21 13:53:13;;;;;;;0.37;0.20;;;;;;;;;;5046745;28;20227;-74
2023/01/21 13:55:46;;;;;;;1.63;1.53;;;;;;;;;;5047142;28;20211;-72
2023/01/21 13:58:14;;;;;;;0.93;0.37;;;;;;;;;;5029457;28;20212;-78
2023/01/21 14:00:44;;;;;;;0.10;0.10;;;;;;;;;;5047317;28;20299;-80
2023/01/21 14:03:18;;;;;;;0.40;0.40;;;;;;;;;;5046948;28;20666;-78
2023/01/21 14:05:47;;;;;;;1.50;0.67;;;;;;;;;;5047908;28;20669;-78
2023/01/21 14:08:19;;;;;;;0.43;0.43;;;;;;;;;;5047093;28;20207;-81
2023/01/21 14:10:51;;;;;;;0.40;0.40;;;;;;;;;;5046908;28;20223;-74
2023/01/21 14:13:27;;;;;;;0.57;0.57;;;;;;;;;;5047342;28;20223;-78
2023/01/21 14:16:01;;;;;;;0.37;0.37;;;;;;;;;;5047084;28;20305;-78
2023/01/21 14:18:37;;;;;;;0.50;0.50;;;;;;;;;;5045032;28;20670;-73
2023/01/21 14:21:14;;;;;;;0.53;0.40;;;;;;;;;;5041147;28;20214;-78
2023/01/21 14:23:51;;;;;;;0.10;0.10;;;;;;;;;;5046322;28;20207;-79
2023/01/21 14:26:24;;;;;;;0.40;0.40;;;;;;;;;;5046902;28;20211;-79
2023/01/21 14:28:54;;;;;;;1.83;0.40;;;;;;;;;;5048820;28;20210;-78
2023/01/21 14:31:22;;;;;;;0.50;0.50;;;;;;;;;;5047493;28;20215;-79
2023/01/21 14:33:53;;;;;;;0.77;0.77;;;;;;;;;;5042384;28;20285;-78
2023/01/21 14:36:23;;;;;;;1.53;0.63;;;;;;;;;;5046854;28;20265;-78
2023/01/21 14:38:57;;;;;;;1.47;1.40;;;;;;;;;;5046885;28;20618;-78
2023/01/21 14:41:24;;;;;;;1.40;1.20;;;;;;;;;;5047616;28;20229;-79
2023/01/21 14:43:52;;;;;;;0.67;0.67;;;;;;;;;;5045066;28;20207;-80
2023/01/21 14:46:34;;;;;;;0.17;0.17;;;;;;;;;;5048276;28;20707;-79
2023/01/21 14:49:05;;;;;;;2.00;0.83;;;;;;;;;;5043944;28;20208;-79
2023/01/21 14:51:33;;;;;;;2.80;1.13;;;;;;;;;;5046806;28;20314;-79
2023/01/21 14:54:03;;;;;;;0.40;0.20;;;;;;;;;;5045863;28;20284;-80
2023/01/21 14:56:32;;;;;;;0.60;0.60;;;;;;;;;;5047245;28;20248;-81
2023/01/21 14:59:01;;;;;;;0.30;0.30;;;;;;;;;;5046303;28;20216;-81